KNPA/NPA METAR and TAF weather

Enter ICAO airport designator
Station Type Date Time Source
KNPA METAR 2020/01/23 05:56 UTC NOAA

KNPA 230556Z AUTO 05007KT 10SM CLR 11/05 A3013 RMK AO2 SLP203 T01110050 10111 20078 401111006 56027


Station Type Date Time Source
KNPA Decoded METAR 2020/01/23 05:56 UTC NOAA

Pensacola, Naval Air Station, FL, United States (KNPA) 30-21-22N 087-19-24W 10M
Jan 23, 2020 - 12:56 AM EST / 2020.01.23 0556 UTC
Wind: from the NE (050 degrees) at 8 MPH (7 KT):0
Visibility: 10 mile(s):0
Sky conditions: clear
Temperature: 52.0 F (11.1 C)
Dew Point: 41.0 F (5.0 C)
Relative Humidity: 66%
Pressure (altimeter): 30.13 in. Hg (1020 hPa)
Pressure tendency: 0.08 inches (2.7 hPa) lower than three hours ago
ob: KNPA 230556Z AUTO 05007KT 10SM CLR 11/05 A3013 RMK AO2 SLP203 T01110050 10111 20078 401111006 56027
cycle: 6

Station Type Date Time Source
KNPA TAF 2020/01/22 23:03 UTC NOAA

TAF TAF KNPA 2223/2323 VRB05KT 9999 BKN160 OVC220 QNH3018INS
FM230300 08007KT 9999 BKN140 OVC200 621408 QNH3015INS
FM230800 08007KT 9999 BKN035 OVC120 621209 QNH3009INS
FM231200 09010KT 9999 VCSH BKN020 OVC080 621009 621902 QNH3005INS
TEMPO 2312/2315 8000 -RA BKN007 OVC015
FM231500 10012KT 9999 VCSH OVC007 621009 621904 QNH3000INS
TEMPO 2315/2319 6000 RA BR OVC005
FM231900 11012KT 8000 RA BR VCTS BKN007 OVC015CB 621109 622004 QNH2995INS
TEMPO 2319/2322 VRB15G25KT 4800 TSRA AUTOMATED SENSOR METWATCH 2303 TIL 2312 T05/2312Z T11/2319Z FN20034

Example: see airport list